Flight Track Log - Related Links

Times and Time Zones

All times are in EST time to prevent confusion due to time zone crossing. See the CSN6865 flight status page for this flight to view local times or setup timezone preferences in your user account.

Time Position Orientation Groundspeed Altitude Reporting Facility
EST Latitude Longitude Course Direction KTS MPH feet Rate Location/Type
Wed 03:46:00 AM 43.8726 87.3673 246° West  Level Estimated
Wed 03:47:00 AM 43.8379 87.2604 246° West  Level Estimated
Wed 03:48:00 AM 43.8032 87.1537 246° West  Level Estimated
Wed 03:49:00 AM 43.7683 87.0471 246° West  Level Estimated
Wed 03:50:00 AM 43.7307 86.9325 246° West  Level Estimated
Wed 03:51:00 AM 43.6929 86.8180 246° West  Level Estimated
Wed 03:52:00 AM 43.6550 86.7036 245° Southwest  Level Estimated
Wed 03:53:00 AM 43.6171 86.5894 245° Southwest  Level Estimated
Wed 03:54:00 AM 43.5790 86.4753 245° Southwest  Level Estimated
Wed 03:55:00 AM 43.5408 86.3614 245° Southwest  Level Estimated
Wed 03:56:00 AM 43.5024 86.2476 245° Southwest  Level Estimated
Wed 03:57:00 AM 43.4640 86.1340 245° Southwest  Level Estimated
Wed 03:58:00 AM 43.4255 86.0205 245° Southwest  Level Estimated
Wed 03:59:00 AM 43.3868 85.9071 245° Southwest  Level Estimated
Wed 04:00:00 AM 43.3480 85.7939 245° Southwest  Level Estimated
Wed 04:01:00 AM 43.3092 85.6808 245° Southwest  Level Estimated
Wed 04:02:00 AM 43.2702 85.5679 245° Southwest  Level Estimated
Wed 04:03:00 AM 43.2311 85.4551 245° Southwest  Level Estimated
Wed 04:04:00 AM 43.1919 85.3425 245° Southwest  Level Estimated
Wed 04:05:00 AM 43.1525 85.2300 244° Southwest  Level Estimated
Wed 04:06:00 AM 43.1131 85.1177 244° Southwest  Level Estimated
Wed 04:07:00 AM 43.0736 85.0055 244° Southwest  Level Estimated
Wed 04:08:00 AM 43.0339 84.8935 244° Southwest  Level Estimated
Wed 04:09:00 AM 42.9942 84.7816 244° Southwest  Level Estimated
Wed 04:10:00 AM 42.9543 84.6698 244° Southwest  Level Estimated
Wed 04:11:00 AM 42.9143 84.5582 244° Southwest  Level Estimated
Wed 04:12:00 AM 42.8742 84.4467 244° Southwest  Level Estimated
Wed 04:13:00 AM 42.8340 84.3354 244° Southwest  Level Estimated
Wed 04:14:00 AM 42.7937 84.2242 244° Southwest  Level Estimated
Wed 04:15:00 AM 42.7533 84.1132 244° Southwest  Level Estimated
Wed 04:16:00 AM 42.7128 84.0023 244° Southwest  Level Estimated
Wed 04:17:00 AM 42.6722 83.8916 244° Southwest  Level Estimated
Wed 04:18:00 AM 42.6314 83.7810 243° Southwest  Level Estimated
Wed 04:19:00 AM 42.5906 83.6705 243° Southwest  Level Estimated
Wed 04:20:00 AM 42.5496 83.5602 243° Southwest  Level Estimated
Wed 04:21:00 AM 42.5086 83.4500 243° Southwest  Level Estimated
Wed 04:22:00 AM 42.4674 83.3400 243° Southwest  Level Estimated
Wed 04:23:00 AM 42.4262 83.2301 243° Southwest  Level Estimated
Wed 04:24:00 AM 42.3848 83.1204 243° Southwest  Level Estimated
Wed 04:25:00 AM 42.3433 83.0108 243° Southwest  Level Estimated
Wed 04:26:00 AM 42.3018 82.9014 243° Southwest  Level Estimated
Wed 04:27:00 AM 42.2601 82.7921 243° Southwest  Level Estimated
Wed 04:28:00 AM 42.2183 82.6829 243° Southwest  Level Estimated
Wed 04:29:00 AM 42.1764 82.5739 243° Southwest  Level Estimated
Wed 04:30:00 AM 42.1344 82.4651 243° Southwest  Level Estimated
Wed 04:31:00 AM 42.0924 82.3564 242° Southwest  Level Estimated
Wed 04:32:00 AM 42.0502 82.2478 242° Southwest  Level Estimated
Wed 04:33:00 AM 42.0079 82.1394 242° Southwest  Level Estimated
Wed 04:34:00 AM 41.9655 82.0311 242° Southwest  Level Estimated
Wed 04:35:00 AM 41.9230 81.9229 242° Southwest  Level Estimated
Wed 04:36:00 AM 41.8804 81.8149 242° Southwest  Level Estimated
Wed 04:37:00 AM 41.8377 81.7071 242° Southwest  Level Estimated
Wed 04:38:00 AM 41.7949 81.5994 242° Southwest  Level Estimated
Wed 04:39:00 AM 41.7520 81.4918 242° Southwest  Level Estimated
Wed 04:40:00 AM 41.7090 81.3844 242° Southwest  Level Estimated
Wed 04:41:00 AM 41.6659 81.2771 242° Southwest  Level Estimated
Wed 04:42:00 AM 41.6227 81.1700 242° Southwest  Level Estimated
Wed 04:43:00 AM 41.5794 81.0630 242° Southwest  Level Estimated
Wed 04:44:00 AM 41.5360 80.9561 242° Southwest  Level Estimated
Wed 04:45:00 AM 41.4925 80.8494 241° Southwest  Level Estimated
Wed 04:46:00 AM 41.4489 80.7429 241° Southwest  Level Estimated
Wed 04:47:00 AM 41.4052 80.6365 241° Southwest  Level Estimated
Wed 04:48:00 AM 41.3614 80.5302 241° Southwest  Level Estimated
Wed 04:49:00 AM 41.3175 80.4240 241° Southwest  Level Estimated
Wed 04:50:00 AM 41.2735 80.3181 241° Southwest  Level Estimated
Wed 04:51:00 AM 41.2625 80.2917 241° Southwest  Level Estimated
Wed 04:52:00 AM 41.2625 80.2917 270° West  Level Estimated
Wed 04:53:00 AM 41.2625 80.2917 270° West  Level Estimated
Wed 04:54:00 AM 41.2625 80.2917 270° West  Level Estimated

Login

Don't have an account? Register now (free) for customized features, flight alerts, and more!